Time;durP1;ratioP1;P1;durP2;ratioP2;P2;SDS_P1;SDS_P2;PMS_P1;PMS_P2;Temp;Humidity;BMP_temperature;BMP_pressure;BME280_temperature;BME280_humidity;BME280_pressure;Samples;Min_cycle;Max_cycle;Signal;HPM_P1;HPM_P2
2023/08/09 00:01:53;;;;;;;5.28;4.18;;;15.90;99.90;;;;;;4993740;28;20046;-52
2023/08/09 00:04:19;;;;;;;6.43;4.05;;;16.00;99.90;;;;;;4993568;28;20030;-50
2023/08/09 00:06:44;;;;;;;4.20;3.80;;;16.10;99.90;;;;;;4993120;28;20034;-52
2023/08/09 00:09:10;;;;;;;9.48;3.92;;;16.00;99.90;;;;;;4993282;28;20105;-53
2023/08/09 00:11:36;;;;;;;6.82;3.40;;;16.10;99.90;;;;;;4993755;28;20042;-48
2023/08/09 00:14:02;;;;;;;8.15;3.42;;;16.10;99.90;;;;;;4993059;28;20027;-47
2023/08/09 00:16:28;;;;;;;4.72;3.88;;;16.10;99.90;;;;;;4992994;28;20029;-48
2023/08/09 00:18:53;;;;;;;4.38;3.60;;;16.20;99.90;;;;;;4993138;28;20034;-49
2023/08/09 00:21:19;;;;;;;6.25;3.63;;;16.20;99.90;;;;;;4992836;28;20395;-50
2023/08/09 00:23:44;;;;;;;7.55;3.80;;;16.20;99.90;;;;;;4975663;28;20327;-47
2023/08/09 00:26:10;;;;;;;4.38;3.88;;;16.20;99.90;;;;;;4992902;28;20060;-48
2023/08/09 00:28:36;;;;;;;9.57;4.07;;;16.20;99.90;;;;;;4992999;28;20038;-52
2023/08/09 00:31:03;;;;;;;10.13;4.05;;;16.10;99.90;;;;;;4975187;28;20073;-52
2023/08/09 00:33:29;;;;;;;7.30;4.90;;;16.10;99.90;;;;;;4992976;28;20424;-53
2023/08/09 00:35:55;;;;;;;5.85;3.47;;;15.90;99.90;;;;;;4993151;28;20030;-50
2023/08/09 00:38:20;;;;;;;6.18;3.85;;;15.90;99.90;;;;;;4992975;28;20311;-49
2023/08/09 00:40:46;;;;;;;5.63;3.88;;;15.90;99.90;;;;;;4992439;28;20026;-52
2023/08/09 00:43:11;;;;;;;4.85;3.92;;;15.90;99.90;;;;;;4992868;28;20037;-51
2023/08/09 00:45:42;;;;;;;6.35;4.00;;;15.90;99.90;;;;;;4975140;28;20509;-49
2023/08/09 00:48:07;;;;;;;6.00;3.53;;;15.90;99.90;;;;;;4974780;28;20133;-50
2023/08/09 00:50:33;;;;;;;7.82;4.07;;;15.90;99.90;;;;;;4992384;28;20110;-50
2023/08/09 00:52:59;;;;;;;6.85;3.67;;;15.90;99.90;;;;;;4992821;28;20057;-52
2023/08/09 00:55:25;;;;;;;8.00;4.20;;;15.90;99.90;;;;;;4992346;28;20030;-49
2023/08/09 00:57:52;;;;;;;5.75;3.97;;;15.90;99.90;;;;;;4992606;28;20386;-49
2023/08/09 01:00:18;;;;;;;7.47;4.07;;;16.00;99.90;;;;;;4992135;28;20022;-50
2023/08/09 01:02:44;;;;;;;7.15;4.15;;;16.00;99.90;;;;;;4992551;28;20014;-50
2023/08/09 01:05:10;;;;;;;7.05;4.72;;;16.00;99.90;;;;;;4992407;28;20026;-51
2023/08/09 01:07:58;;;;;;;7.68;3.92;;;16.00;99.90;;;;;;4992438;28;20025;-49
2023/08/09 01:10:34;;;;;;;9.48;4.20;;;16.10;99.90;;;;;;4992113;28;20431;-51
2023/08/09 01:13:03;;;;;;;9.93;4.80;;;16.10;99.90;;;;;;4992150;28;20061;-51
2023/08/09 01:15:36;;;;;;;6.75;4.35;;;16.10;99.90;;;;;;4992217;28;20041;-50
2023/08/09 01:18:03;;;;;;;7.97;4.88;;;16.00;99.90;;;;;;4992359;28;20088;-52
2023/08/09 01:20:30;;;;;;;10.75;4.75;;;15.90;99.90;;;;;;4992098;28;20084;-52
2023/08/09 01:23:04;;;;;;;4.85;4.40;;;16.00;99.90;;;;;;4974610;28;20030;-48
2023/08/09 01:25:30;;;;;;;5.45;4.32;;;16.10;99.90;;;;;;4992450;28;20026;-54
2023/08/09 01:27:58;;;;;;;5.00;4.32;;;16.00;99.90;;;;;;4992144;28;20521;-53
2023/08/09 01:30:24;;;;;;;6.50;4.72;;;15.90;99.90;;;;;;4991939;28;20041;-54
2023/08/09 01:32:50;;;;;;;8.80;4.78;;;15.90;99.90;;;;;;4992215;28;20110;-52
2023/08/09 01:35:16;;;;;;;6.13;4.43;;;15.90;99.90;;;;;;4974595;28;20544;-49
2023/08/09 01:37:48;;;;;;;6.63;4.75;;;15.90;99.90;;;;;;4992075;28;20014;-49
2023/08/09 01:40:17;;;;;;;5.20;4.55;;;15.90;99.90;;;;;;4974403;28;20081;-51
2023/08/09 01:42:43;;;;;;;10.07;5.25;;;15.90;99.90;;;;;;4992275;28;20027;-51
2023/08/09 01:45:11;;;;;;;6.45;5.10;;;15.80;99.90;;;;;;4991587;28;20399;-53
2023/08/09 01:47:38;;;;;;;8.57;5.28;;;15.80;99.90;;;;;;4974630;28;20018;-49
2023/08/09 01:50:04;;;;;;;10.07;5.28;;;15.80;99.90;;;;;;4991772;28;20030;-51
2023/08/09 01:52:30;;;;;;;7.72;5.85;;;15.80;99.90;;;;;;4991754;28;20109;-51
2023/08/09 01:54:55;;;;;;;7.50;5.00;;;15.80;99.90;;;;;;4991861;28;20118;-51
2023/08/09 01:57:21;;;;;;;7.95;5.82;;;15.80;99.90;;;;;;4991712;28;20497;-49
2023/08/09 01:59:46;;;;;;;6.93;5.13;;;15.80;99.90;;;;;;4976165;28;20077;-50
2023/08/09 02:02:12;;;;;;;12.63;6.57;;;15.80;99.90;;;;;;4995762;28;20069;-55
2023/08/09 02:04:38;;;;;;;7.90;5.20;;;15.80;99.90;;;;;;4995661;28;20041;-50
2023/08/09 02:07:04;;;;;;;9.70;5.30;;;15.80;99.90;;;;;;4995562;28;20117;-50
2023/08/09 02:09:30;;;;;;;5.05;4.53;;;15.80;99.90;;;;;;4995378;28;20482;-51
2023/08/09 02:11:56;;;;;;;5.97;4.38;;;15.80;99.90;;;;;;4995483;28;20088;-50
2023/08/09 02:14:21;;;;;;;7.25;5.13;;;15.80;99.90;;;;;;4995051;28;20393;-53
2023/08/09 02:16:47;;;;;;;4.78;4.30;;;15.90;99.90;;;;;;4995341;28;20038;-48
2023/08/09 02:19:13;;;;;;;9.63;4.88;;;15.90;99.90;;;;;;4995234;28;20026;-51
2023/08/09 02:21:42;;;;;;;5.25;4.78;;;16.00;99.90;;;;;;4995168;28;20027;-50
2023/08/09 02:24:08;;;;;;;5.88;4.43;;;16.00;99.90;;;;;;4977864;28;20026;-54
2023/08/09 02:26:34;;;;;;;6.75;5.05;;;16.00;99.90;;;;;;4978031;28;20030;-53
2023/08/09 02:29:03;;;;;;;4.90;4.40;;;16.00;99.90;;;;;;4995470;28;20026;-52
2023/08/09 02:31:31;;;;;;;8.27;4.60;;;16.00;99.90;;;;;;4995005;28;20459;-51
2023/08/09 02:33:57;;;;;;;5.35;4.50;;;16.00;99.90;;;;;;4995204;28;20409;-49
2023/08/09 02:36:23;;;;;;;5.32;4.82;;;16.00;99.90;;;;;;4995048;28;20023;-50
2023/08/09 02:38:49;;;;;;;6.85;4.88;;;16.10;99.90;;;;;;4994885;28;20026;-51
2023/08/09 02:41:14;;;;;;;10.65;6.00;;;16.10;99.90;;;;;;4995070;28;20034;-48
2023/08/09 02:43:40;;;;;;;9.95;5.88;;;16.20;99.90;;;;;;4994979;28;20026;-49
2023/08/09 02:46:05;;;;;;;11.70;5.85;;;16.20;99.90;;;;;;4994917;28;20034;-50
2023/08/09 02:48:31;;;;;;;7.20;5.75;;;16.10;99.90;;;;;;4994877;28;20077;-49
2023/08/09 02:50:56;;;;;;;9.43;5.65;;;16.10;99.90;;;;;;4994822;28;20489;-48
2023/08/09 02:53:31;;;;;;;9.32;5.38;;;16.10;99.90;;;;;;4994676;28;20018;-50
2023/08/09 02:55:57;;;;;;;5.75;4.95;;;16.10;99.90;;;;;;4994418;28;20494;-50
2023/08/09 02:58:23;;;;;;;7.22;4.78;;;16.10;99.90;;;;;;4994612;28;20034;-51
2023/08/09 03:00:48;;;;;;;5.32;4.43;;;16.10;99.90;;;;;;4994386;28;20131;-52
2023/08/09 03:03:14;;;;;;;6.30;5.00;;;16.00;99.90;;;;;;4977042;28;20049;-50
2023/08/09 03:05:40;;;;;;;10.45;5.20;;;16.00;99.90;;;;;;4994698;28;20510;-48
2023/08/09 03:08:06;;;;;;;5.32;4.78;;;16.10;99.90;;;;;;4994640;28;20057;-52
2023/08/09 03:10:31;;;;;;;7.55;5.38;;;16.10;99.90;;;;;;4993815;28;20034;-51
2023/08/09 03:12:57;;;;;;;7.10;5.10;;;16.10;99.90;;;;;;4994150;28;20055;-51
2023/08/09 03:15:23;;;;;;;13.82;5.72;;;16.10;99.90;;;;;;4994340;28;20026;-54
2023/08/09 03:17:49;;;;;;;8.57;5.47;;;16.00;99.90;;;;;;4994324;28;20409;-54
2023/08/09 03:20:15;;;;;;;9.18;6.40;;;16.00;99.90;;;;;;4994092;28;20027;-52
2023/08/09 03:22:45;;;;;;;7.10;5.38;;;15.90;99.90;;;;;;4994728;28;20027;-53
2023/08/09 03:25:12;;;;;;;6.25;5.38;;;15.90;99.90;;;;;;4994070;28;20037;-53
2023/08/09 03:27:38;;;;;;;11.75;5.93;;;15.90;99.90;;;;;;4993765;28;20483;-46
2023/08/09 03:30:05;;;;;;;9.57;5.65;;;15.90;99.90;;;;;;4993946;28;20038;-51
2023/08/09 03:32:31;;;;;;;10.55;6.10;;;15.90;99.90;;;;;;4994004;28;20541;-52
2023/08/09 03:34:56;;;;;;;15.30;6.38;;;15.90;99.90;;;;;;4994063;28;20113;-54
2023/08/09 03:37:22;;;;;;;7.53;5.40;;;15.80;99.90;;;;;;4976260;28;20033;-49
2023/08/09 03:39:47;;;;;;;9.35;5.20;;;15.80;99.90;;;;;;4993673;28;20429;-49
2023/08/09 03:42:13;;;;;;;6.32;5.72;;;15.80;99.90;;;;;;4993797;28;20062;-48
2023/08/09 03:44:38;;;;;;;7.38;5.20;;;15.90;99.90;;;;;;4994097;28;20057;-49
2023/08/09 03:47:04;;;;;;;8.20;5.82;;;15.90;99.90;;;;;;4993694;28;20030;-52
2023/08/09 03:49:30;;;;;;;9.50;5.45;;;15.90;99.90;;;;;;4994142;28;20054;-48
2023/08/09 03:51:55;;;;;;;9.98;5.80;;;15.90;99.90;;;;;;4993928;28;20030;-48
2023/08/09 03:54:21;;;;;;;10.23;5.38;;;15.90;99.90;;;;;;4976051;28;20029;-50
2023/08/09 03:56:46;;;;;;;10.52;5.88;;;15.90;99.90;;;;;;4993371;28;20383;-50
2023/08/09 03:59:12;;;;;;;9.25;6.35;;;15.90;99.90;;;;;;4993220;28;20058;-52
2023/08/09 04:01:37;;;;;;;11.32;5.55;;;15.90;99.90;;;;;;4993731;28;20033;-52
2023/08/09 04:04:03;;;;;;;5.13;4.63;;;15.90;99.90;;;;;;4993396;28;20026;-48
2023/08/09 04:06:29;;;;;;;9.73;4.93;;;15.90;99.90;;;;;;4993219;28;20034;-55
2023/08/09 04:08:54;;;;;;;5.68;4.70;;;15.90;99.90;;;;;;4993231;28;20030;-50
2023/08/09 04:11:20;;;;;;;5.50;4.53;;;15.90;99.90;;;;;;4993041;28;20141;-51
2023/08/09 04:13:45;;;;;;;6.85;5.03;;;15.80;99.90;;;;;;4993020;28;20030;-50
2023/08/09 04:16:11;;;;;;;9.45;5.15;;;15.90;99.90;;;;;;4975550;28;20040;-50
2023/08/09 04:18:37;;;;;;;6.75;4.65;;;15.80;99.90;;;;;;4993130;28;20097;-53
2023/08/09 04:21:02;;;;;;;6.75;4.60;;;15.80;99.90;;;;;;4992530;28;20038;-50
2023/08/09 04:23:28;;;;;;;6.43;4.63;;;15.80;99.90;;;;;;4992657;28;20027;-50
2023/08/09 04:25:54;;;;;;;7.00;4.30;;;15.80;99.90;;;;;;4993274;28;20106;-51
2023/08/09 04:28:19;;;;;;;4.95;3.55;;;15.80;99.90;;;;;;4992916;28;20062;-53
2023/08/09 04:30:46;;;;;;;9.88;3.90;;;15.80;99.90;;;;;;4975166;28;20038;-48
2023/08/09 04:33:12;;;;;;;3.67;3.33;;;15.80;99.90;;;;;;4975071;28;20105;-51
2023/08/09 04:35:38;;;;;;;6.90;3.42;;;15.80;99.90;;;;;;4992708;28;20014;-48
2023/08/09 04:38:04;;;;;;;5.38;3.35;;;15.90;99.90;;;;;;4992780;28;20030;-48
2023/08/09 04:40:30;;;;;;;6.55;2.90;;;15.90;99.90;;;;;;4992618;28;20018;-51
2023/08/09 04:42:56;;;;;;;3.35;2.40;;;15.90;99.90;;;;;;4992732;28;20031;-47
2023/08/09 04:45:21;;;;;;;6.30;3.03;;;16.00;99.90;;;;;;4992523;28;20038;-49
2023/08/09 04:47:48;;;;;;;4.13;2.70;;;16.00;99.90;;;;;;4992593;28;20030;-48
2023/08/09 04:50:13;;;;;;;7.18;3.28;;;16.00;99.90;;;;;;4992553;28;20018;-48
2023/08/09 04:52:39;;;;;;;11.13;2.63;;;16.10;99.90;;;;;;4992803;28;20375;-50
2023/08/09 04:55:05;;;;;;;2.35;2.25;;;16.10;99.90;;;;;;4992507;28;20026;-54
2023/08/09 04:57:31;;;;;;;6.90;3.45;;;16.10;99.90;;;;;;4992521;28;20398;-50
2023/08/09 04:59:57;;;;;;;9.60;3.03;;;16.10;99.90;;;;;;4992381;28;20019;-49
2023/08/09 05:02:23;;;;;;;5.00;3.50;;;16.10;99.90;;;;;;4992432;28;20030;-49
2023/08/09 05:04:49;;;;;;;3.65;2.15;;;16.10;99.90;;;;;;4992126;28;20080;-51
2023/08/09 05:07:14;;;;;;;4.13;3.55;;;16.10;99.90;;;;;;4992407;28;20449;-48
2023/08/09 05:09:40;;;;;;;2.55;2.28;;;16.20;99.90;;;;;;4992239;28;20506;-48
2023/08/09 05:12:06;;;;;;;6.45;2.60;;;16.20;99.90;;;;;;4974684;28;20034;-48
2023/08/09 05:14:32;;;;;;;5.97;2.70;;;16.20;99.90;;;;;;4992205;28;20379;-55
2023/08/09 05:16:57;;;;;;;7.22;2.67;;;16.20;99.90;;;;;;4992810;28;20054;-56
2023/08/09 05:19:23;;;;;;;5.35;2.78;;;16.20;99.90;;;;;;4992488;28;20084;-52
2023/08/09 05:21:48;;;;;;;2.67;2.47;;;16.20;99.90;;;;;;4975318;28;20030;-52
2023/08/09 05:24:14;;;;;;;3.90;2.83;;;16.30;99.90;;;;;;4992419;28;20030;-56
2023/08/09 05:26:40;;;;;;;6.55;3.25;;;16.30;99.90;;;;;;4992339;28;20023;-50
2023/08/09 05:29:06;;;;;;;4.63;2.42;;;16.30;99.90;;;;;;4991863;28;20038;-52
2023/08/09 05:31:31;;;;;;;4.07;2.78;;;16.30;99.90;;;;;;4992403;28;20474;-48
2023/08/09 05:33:57;;;;;;;4.35;3.15;;;16.30;99.90;;;;;;4996364;28;20104;-48
2023/08/09 05:36:23;;;;;;;12.70;2.92;;;16.40;99.90;;;;;;4998709;28;20150;-49
2023/08/09 05:38:49;;;;;;;4.43;2.80;;;16.30;99.90;;;;;;4998458;28;20034;-50
2023/08/09 05:41:15;;;;;;;3.85;2.90;;;16.30;99.90;;;;;;4998348;28;20037;-49
2023/08/09 05:43:40;;;;;;;4.70;2.67;;;16.40;99.90;;;;;;4980951;28;20031;-50
2023/08/09 05:46:06;;;;;;;4.22;2.42;;;16.40;99.90;;;;;;4998379;28;20042;-52
2023/08/09 05:48:32;;;;;;;3.08;2.58;;;16.50;99.90;;;;;;4998502;28;20141;-51
2023/08/09 05:50:57;;;;;;;4.88;3.00;;;16.50;99.90;;;;;;4998334;28;20069;-49
2023/08/09 05:53:23;;;;;;;4.85;2.70;;;16.50;99.90;;;;;;4998335;28;20026;-51
2023/08/09 05:55:49;;;;;;;4.07;2.83;;;16.50;99.90;;;;;;4981405;28;20600;-51
2023/08/09 05:58:15;;;;;;;2.80;2.03;;;16.50;99.90;;;;;;4980937;28;20102;-50
2023/08/09 06:00:41;;;;;;;3.40;2.05;;;16.60;99.90;;;;;;4980923;28;20022;-49
2023/08/09 06:03:07;;;;;;;3.90;2.67;;;16.60;99.90;;;;;;4998333;28;20478;-51
2023/08/09 06:05:33;;;;;;;6.72;2.70;;;16.70;99.90;;;;;;4998263;28;20026;-47
2023/08/09 06:07:59;;;;;;;5.78;2.15;;;16.70;99.90;;;;;;4998129;28;20053;-48
2023/08/09 06:10:25;;;;;;;7.30;2.30;;;16.60;99.90;;;;;;4997738;28;20034;-48
2023/08/09 06:12:52;;;;;;;4.28;2.33;;;16.70;99.90;;;;;;4980812;28;20498;-50
2023/08/09 06:15:18;;;;;;;3.20;2.08;;;16.80;99.90;;;;;;4998247;28;20026;-49
2023/08/09 06:17:43;;;;;;;2.22;2.00;;;16.80;99.90;;;;;;4998174;28;20026;-55
2023/08/09 06:20:12;;;;;;;2.88;2.28;;;16.80;99.90;;;;;;4997956;28;20034;-49
2023/08/09 06:22:38;;;;;;;2.65;1.83;;;16.80;99.90;;;;;;4998418;28;20506;-49
2023/08/09 06:25:05;;;;;;;2.70;2.50;;;16.80;99.90;;;;;;4998019;28;20065;-52
2023/08/09 06:27:30;;;;;;;6.68;3.00;;;16.80;99.90;;;;;;4998080;28;20023;-48
2023/08/09 06:29:56;;;;;;;4.57;2.47;;;16.80;99.90;;;;;;4997918;28;20113;-49
2023/08/09 06:32:22;;;;;;;6.00;1.98;;;16.90;99.90;;;;;;4998094;28;20054;-51
2023/08/09 06:34:47;;;;;;;2.22;2.00;;;16.90;99.90;;;;;;4981030;28;20085;-50
2023/08/09 06:37:13;;;;;;;6.00;2.00;;;16.90;99.90;;;;;;4980655;28;20077;-48
2023/08/09 06:39:39;;;;;;;6.07;2.22;;;16.90;99.90;;;;;;4997575;28;20034;-48
2023/08/09 06:42:04;;;;;;;3.78;2.38;;;17.00;99.90;;;;;;4997602;28;20022;-45
2023/08/09 06:44:30;;;;;;;3.15;2.30;;;17.00;99.90;;;;;;4996218;28;20037;-50
2023/08/09 06:46:55;;;;;;;2.42;1.83;;;17.00;99.90;;;;;;4994716;28;20034;-49
2023/08/09 06:49:22;;;;;;;7.32;2.85;;;17.00;99.90;;;;;;4994695;28;20030;-54
2023/08/09 06:51:48;;;;;;;6.55;2.50;;;17.10;99.90;;;;;;4994820;28;20022;-49
2023/08/09 06:54:14;;;;;;;4.80;2.50;;;17.10;99.90;;;;;;4994654;28;20025;-48
2023/08/09 06:56:39;;;;;;;3.22;2.30;;;17.10;99.90;;;;;;4994386;28;20520;-49
2023/08/09 06:59:05;;;;;;;6.60;2.10;;;17.10;99.90;;;;;;4994596;28;20018;-47
2023/08/09 07:01:31;;;;;;;4.93;2.70;;;17.10;99.90;;;;;;4976953;28;20495;-48
2023/08/09 07:03:57;;;;;;;2.80;2.00;;;17.10;99.90;;;;;;4994896;28;20034;-48
2023/08/09 07:06:23;;;;;;;2.42;2.08;;;17.10;99.90;;;;;;4994426;28;20547;-49
2023/08/09 07:08:49;;;;;;;4.13;2.13;;;17.20;99.90;;;;;;4977022;28;20494;-46
2023/08/09 07:11:14;;;;;;;6.60;2.40;;;17.20;99.90;;;;;;4994059;28;20041;-48
2023/08/09 07:13:40;;;;;;;6.97;3.03;;;17.30;99.90;;;;;;4994071;28;20434;-52
2023/08/09 07:16:06;;;;;;;8.20;2.63;;;17.30;99.90;;;;;;4994004;28;20530;-51
2023/08/09 07:18:31;;;;;;;9.82;2.75;;;17.30;99.90;;;;;;4994308;28;20102;-53
2023/08/09 07:20:57;;;;;;;4.38;2.53;;;17.30;99.90;;;;;;4994037;28;20039;-51
2023/08/09 07:23:24;;;;;;;4.78;2.70;;;17.40;99.90;;;;;;4994050;28;20109;-49
2023/08/09 07:25:50;;;;;;;5.45;2.20;;;17.50;99.90;;;;;;4994039;28;20026;-50
2023/08/09 07:28:15;;;;;;;2.40;2.20;;;17.50;99.90;;;;;;4976754;28;20061;-48
2023/08/09 07:30:41;;;;;;;4.22;2.83;;;17.60;99.90;;;;;;4993766;28;20052;-50
2023/08/09 07:33:06;;;;;;;4.93;2.42;;;17.60;99.90;;;;;;4994223;28;20026;-51
2023/08/09 07:35:32;;;;;;;2.85;1.85;;;17.60;99.90;;;;;;4994026;28;20026;-52
2023/08/09 07:37:57;;;;;;;3.15;2.63;;;17.60;99.90;;;;;;4976513;28;20392;-52
2023/08/09 07:40:23;;;;;;;7.85;2.75;;;17.60;99.90;;;;;;4993973;28;20022;-49
2023/08/09 07:42:49;;;;;;;3.35;2.40;;;17.70;99.90;;;;;;4992449;28;20041;-54
2023/08/09 07:45:14;;;;;;;5.88;2.40;;;17.70;99.90;;;;;;5008328;28;20030;-52
2023/08/09 07:47:41;;;;;;;2.67;2.30;;;17.70;99.90;;;;;;5013317;28;20105;-53
2023/08/09 07:50:07;;;;;;;3.60;2.20;;;17.70;99.90;;;;;;4994737;28;20057;-54
2023/08/09 07:52:34;;;;;;;2.13;1.88;;;17.80;99.90;;;;;;4993545;28;20061;-54
2023/08/09 07:55:00;;;;;;;2.50;2.20;;;17.80;99.90;;;;;;4992929;28;20027;-53
2023/08/09 07:57:25;;;;;;;4.20;2.05;;;17.80;99.90;;;;;;4992015;28;20042;-52
2023/08/09 07:59:51;;;;;;;2.85;2.10;;;17.90;99.90;;;;;;4993248;28;20102;-53
2023/08/09 08:02:17;;;;;;;2.88;1.95;;;17.90;99.90;;;;;;4993235;28;20026;-50
2023/08/09 08:04:42;;;;;;;6.00;2.40;;;17.80;99.90;;;;;;4976126;28;20038;-55
2023/08/09 08:07:09;;;;;;;3.88;2.38;;;17.90;99.90;;;;;;4991810;28;20076;-53
2023/08/09 08:09:40;;;;;;;4.97;2.65;;;17.80;99.90;;;;;;4991134;28;20054;-49
2023/08/09 08:12:08;;;;;;;3.13;2.05;;;17.70;99.90;;;;;;5003794;28;20378;-51
2023/08/09 08:14:33;;;;;;;5.07;2.35;;;17.70;99.90;;;;;;5010074;28;20116;-53
2023/08/09 08:16:59;;;;;;;3.05;2.25;;;17.70;99.90;;;;;;4992991;28;20122;-53
2023/08/09 08:19:24;;;;;;;2.65;2.25;;;17.70;99.90;;;;;;4993099;28;20475;-53
2023/08/09 08:21:50;;;;;;;3.38;2.38;;;17.60;99.90;;;;;;4993304;28;20027;-54
2023/08/09 08:24:15;;;;;;;2.97;2.00;;;17.70;99.90;;;;;;4993543;28;20052;-52
2023/08/09 08:26:41;;;;;;;4.05;2.08;;;17.70;99.90;;;;;;4993418;28;20029;-54
2023/08/09 08:29:06;;;;;;;3.63;2.00;;;17.80;99.90;;;;;;4992687;28;20026;-50
2023/08/09 08:31:32;;;;;;;2.30;2.20;;;17.80;99.90;;;;;;4992724;28;20026;-55
2023/08/09 08:33:58;;;;;;;3.38;2.30;;;17.80;99.90;;;;;;4993149;28;20038;-52
2023/08/09 08:36:23;;;;;;;3.42;2.13;;;17.70;99.90;;;;;;4992920;28;20026;-54
2023/08/09 08:38:50;;;;;;;9.23;2.45;;;17.80;99.90;;;;;;4992836;28;20029;-52
2023/08/09 08:41:15;;;;;;;2.78;2.45;;;17.80;99.90;;;;;;4992646;28;20030;-49
2023/08/09 08:43:41;;;;;;;2.70;2.50;;;17.80;99.90;;;;;;4992649;28;20032;-52
2023/08/09 08:46:09;;;;;;;8.98;2.50;;;17.90;99.90;;;;;;4992574;28;20037;-51
2023/08/09 08:48:35;;;;;;;3.17;2.33;;;17.90;99.90;;;;;;4991679;28;20034;-52
2023/08/09 08:51:04;;;;;;;5.22;2.45;;;17.90;99.90;;;;;;4974983;28;20033;-56
2023/08/09 08:53:30;;;;;;;7.25;2.05;;;17.80;99.90;;;;;;4991561;28;20027;-49
2023/08/09 08:55:56;;;;;;;8.07;2.40;;;17.70;99.90;;;;;;4991679;28;20038;-50
2023/08/09 08:58:22;;;;;;;6.10;2.58;;;17.60;99.90;;;;;;4974336;28;20026;-51
2023/08/09 09:00:48;;;;;;;2.80;1.77;;;17.50;99.90;;;;;;4989257;28;20030;-53
2023/08/09 09:03:14;;;;;;;2.65;1.65;;;17.30;99.90;;;;;;4991537;28;20033;-53
2023/08/09 09:05:39;;;;;;;1.50;0.90;;;17.20;99.90;;;;;;4992105;28;20014;-52
2023/08/09 09:08:05;;;;;;;1.55;1.45;;;16.60;99.90;;;;;;4993780;28;20026;-52
2023/08/09 09:10:31;;;;;;;4.30;1.50;;;16.20;99.90;;;;;;4992222;28;20509;-50
2023/08/09 09:12:56;;;;;;;2.45;1.17;;;15.90;99.90;;;;;;4992738;28;20054;-50
2023/08/09 09:15:23;;;;;;;5.03;1.70;;;15.80;99.90;;;;;;4992395;28;20033;-51
2023/08/09 09:17:49;;;;;;;2.70;1.52;;;15.70;99.90;;;;;;4991921;28;20045;-49
2023/08/09 09:20:33;;;;;;;2.60;1.48;;;15.80;99.90;;;;;;4992350;28;20494;-53
2023/08/09 09:22:59;;;;;;;5.18;1.13;;;15.90;99.90;;;;;;4975610;28;20026;-49
2023/08/09 09:25:25;;;;;;;1.63;1.10;;;15.90;99.90;;;;;;4974662;28;20030;-48
2023/08/09 09:27:55;;;;;;;5.47;1.92;;;16.10;99.90;;;;;;4993644;28;20157;-51
2023/08/09 09:30:24;;;;;;;2.10;1.15;;;16.20;99.90;;;;;;4974896;28;20077;-53
2023/08/09 09:32:51;;;;;;;1.40;1.10;;;16.20;99.90;;;;;;4991983;28;20026;-50
2023/08/09 09:35:20;;;;;;;3.22;1.25;;;16.20;99.90;;;;;;4992025;28;20022;-50
2023/08/09 09:37:53;;;;;;;4.57;1.30;;;16.30;99.90;;;;;;4974433;28;20027;-49
2023/08/09 09:40:26;;;;;;;1.60;1.33;;;16.50;99.90;;;;;;4974621;28;20081;-49
2023/08/09 09:42:56;;;;;;;2.25;1.25;;;16.70;99.90;;;;;;4992027;28;20050;-50
2023/08/09 09:45:26;;;;;;;5.07;1.13;;;16.90;99.90;;;;;;4991615;28;20085;-48
2023/08/09 09:47:56;;;;;;;1.80;1.20;;;16.90;99.90;;;;;;4991705;28;20030;-51
2023/08/09 09:50:23;;;;;;;2.55;1.10;;;16.90;99.90;;;;;;4991565;28;20034;-50
2023/08/09 09:52:49;;;;;;;3.90;1.15;;;16.90;99.90;;;;;;4991914;28;20129;-52
2023/08/09 09:55:20;;;;;;;33.97;21.95;;;17.00;99.90;;;;;;4972257;28;20026;-53
2023/08/09 09:57:47;;;;;;;33.78;24.13;;;17.10;99.90;;;;;;4987679;28;20057;-52
2023/08/09 10:00:14;;;;;;;67.00;42.78;;;17.20;99.90;;;;;;4991065;28;20114;-51
2023/08/09 10:02:46;;;;;;;5.80;3.88;;;17.20;99.90;;;;;;4992777;28;20081;-56
2023/08/09 10:05:19;;;;;;;1.00;1.00;;;17.20;99.90;;;;;;4990979;28;20029;-52
2023/08/09 10:07:46;;;;;;;1.52;1.13;;;17.20;99.90;;;;;;5011054;28;20046;-51
2023/08/09 10:10:14;;;;;;;3.35;1.20;;;17.20;99.90;;;;;;4995148;28;20375;-50
2023/08/09 10:12:43;;;;;;;3.42;1.23;;;17.20;99.90;;;;;;4989399;28;20077;-52
2023/08/09 10:15:12;;;;;;;0.90;0.90;;;17.20;99.90;;;;;;4988708;28;20112;-51
2023/08/09 10:17:39;;;;;;;0.90;0.90;;;17.10;99.90;;;;;;4990357;28;20131;-52
2023/08/09 10:20:08;;;;;;;1.42;1.27;;;17.10;99.90;;;;;;4990969;28;20544;-52
2023/08/09 10:22:33;;;;;;;2.05;0.95;;;17.30;99.90;;;;;;4993867;28;20330;-52
2023/08/09 10:24:59;;;;;;;9.13;2.72;;;17.30;99.90;;;;;;4993745;28;20034;-55
2023/08/09 10:27:51;;;;;;;1.40;0.90;;;17.50;99.90;;;;;;4994645;28;20036;-50
2023/08/09 10:30:25;;;;;;;3.10;1.00;;;17.60;99.90;;;;;;4994136;28;20027;-52
2023/08/09 10:32:55;;;;;;;0.95;0.90;;;17.70;99.90;;;;;;4994622;28;20486;-48
2023/08/09 10:35:43;;;;;;;0.82;0.80;;;17.70;99.90;;;;;;4994939;28;20637;-53
2023/08/09 10:38:13;;;;;;;2.55;1.40;;;17.70;99.90;;;;;;4994661;28;20398;-51
2023/08/09 10:40:43;;;;;;;1.83;1.10;;;17.90;99.90;;;;;;4994910;28;20485;-54
2023/08/09 10:43:17;;;;;;;2.03;0.90;;;17.90;99.90;;;;;;4995186;28;20069;-51
2023/08/09 10:45:45;;;;;;;3.83;1.57;;;17.90;99.90;;;;;;4993571;28;20124;-51
2023/08/09 10:48:25;;;;;;;1.20;1.05;;;17.90;99.90;;;;;;4994721;28;20281;-53
2023/08/09 10:51:12;;;;;;;1.25;1.13;;;17.90;99.90;;;;;;4994308;28;20025;-53
2023/08/09 10:53:58;;;;;;;4.22;1.40;;;18.00;99.90;;;;;;4994350;28;20435;-50
2023/08/09 10:56:31;;;;;;;1.95;1.13;;;18.00;99.90;;;;;;4976487;28;20122;-58
2023/08/09 10:59:09;;;;;;;5.50;1.05;;;18.00;99.90;;;;;;4977165;28;20022;-54
2023/08/09 11:01:37;;;;;;;1.17;1.08;;;18.10;99.90;;;;;;4994565;28;20030;-53
2023/08/09 11:04:10;;;;;;;5.32;1.20;;;18.20;99.90;;;;;;4994382;28;20038;-55
2023/08/09 11:06:38;;;;;;;1.25;1.15;;;18.30;99.90;;;;;;4994388;28;20026;-58
2023/08/09 11:09:08;;;;;;;6.28;1.80;;;18.40;99.90;;;;;;4994446;28;20506;-58
2023/08/09 11:11:35;;;;;;;17.55;13.52;;;18.50;99.90;;;;;;4977157;28;20038;-54
2023/08/09 11:14:04;;;;;;;38.30;25.55;;;18.60;99.90;;;;;;4994432;28;20033;-52
2023/08/09 11:16:30;;;;;;;9.85;7.00;;;18.70;99.90;;;;;;4961205;28;20037;-56
2023/08/09 11:19:10;;;;;;;7.47;5.43;;;18.80;99.90;;;;;;4993715;28;20037;-47
2023/08/09 11:21:48;;;;;;;4.93;1.17;;;18.80;99.90;;;;;;4994413;28;20351;-51
2023/08/09 11:24:15;;;;;;;7.55;1.55;;;19.10;99.90;;;;;;4994350;28;20037;-53
2023/08/09 11:26:48;;;;;;;1.23;1.13;;;19.20;99.90;;;;;;4993947;28;20022;-53
2023/08/09 11:29:15;;;;;;;0.77;0.77;;;19.30;99.90;;;;;;4993779;28;20073;-50
2023/08/09 11:31:43;;;;;;;1.10;1.00;;;19.60;99.90;;;;;;4993958;28;20038;-56
2023/08/09 11:34:11;;;;;;;1.05;1.00;;;19.70;99.90;;;;;;4994249;28;20049;-53
2023/08/09 11:36:37;;;;;;;2.45;1.17;;;19.80;99.90;;;;;;4994284;28;20027;-54
2023/08/09 11:39:04;;;;;;;2.55;0.95;;;20.20;99.90;;;;;;4993845;28;20153;-50
2023/08/09 11:41:53;;;;;;;3.45;1.30;;;20.30;99.90;;;;;;4993931;28;20450;-51
2023/08/09 11:44:30;;;;;;;2.03;1.15;;;20.50;99.90;;;;;;4994565;28;20109;-54
2023/08/09 11:46:59;;;;;;;0.90;0.90;;;20.80;99.90;;;;;;4994154;28;20138;-55
2023/08/09 11:49:29;;;;;;;1.40;0.77;;;20.80;99.90;;;;;;4993383;28;20513;-55
2023/08/09 11:51:55;;;;;;;5.53;1.25;;;20.70;99.90;;;;;;4993858;28;20045;-55
2023/08/09 11:54:21;;;;;;;3.30;1.17;;;20.80;99.90;;;;;;4976320;28;20049;-51
2023/08/09 11:56:48;;;;;;;1.83;0.80;;;20.90;99.90;;;;;;5039989;22;20361;-51
2023/08/09 11:59:16;;;;;;;2.10;1.13;;;20.80;99.90;;;;;;5052517;28;20029;-51
2023/08/09 12:01:45;;;;;;;2.45;1.15;;;20.80;99.90;;;;;;5035394;28;20090;-53
2023/08/09 12:04:13;;;;;;;1.13;1.02;;;20.90;99.90;;;;;;5024074;28;20029;-52
2023/08/09 12:06:54;;;;;;;1.02;0.88;;;21.00;99.90;;;;;;5014815;28;20026;-47
2023/08/09 12:09:49;;;;;;;3.03;1.02;;;21.00;99.90;;;;;;5032588;28;20029;-49
2023/08/09 12:12:16;;;;;;;1.90;0.77;;;20.80;99.90;;;;;;5020249;28;20053;-51
2023/08/09 12:14:47;;;;;;;0.75;0.75;;;20.90;99.90;;;;;;5015364;28;20120;-47
2023/08/09 12:17:29;;;;;;;3.25;1.25;;;21.00;99.90;;;;;;5015016;28;20104;-46
2023/08/09 12:19:56;;;;;;;3.85;0.90;;;21.00;99.90;;;;;;5035737;28;20439;-53
2023/08/09 12:22:22;;;;;;;2.00;1.17;;;21.00;99.90;;;;;;5045323;28;20061;-46
2023/08/09 12:24:48;;;;;;;1.55;1.42;;;20.70;99.90;;;;;;5015044;28;20073;-46
2023/08/09 12:27:14;;;;;;;1.38;1.02;;;20.60;99.90;;;;;;5032638;28;20032;-46
2023/08/09 12:29:40;;;;;;;13.70;9.98;;;20.50;99.90;;;;;;5033321;28;20021;-48
2023/08/09 12:32:06;;;;;;;17.25;2.78;;;20.50;99.90;;;;;;5015396;28;20536;-46
2023/08/09 12:34:31;;;;;;;0.93;0.93;;;20.60;99.90;;;;;;5025422;28;20116;-47
2023/08/09 12:36:57;;;;;;;2.65;0.77;;;20.60;99.90;;;;;;5040870;28;20026;-48
2023/08/09 12:39:23;;;;;;;0.95;0.80;;;20.60;99.90;;;;;;5021026;28;20048;-46
2023/08/09 12:41:48;;;;;;;3.58;1.23;;;20.70;99.90;;;;;;5031972;28;20053;-47
2023/08/09 12:44:15;;;;;;;1.27;0.98;;;20.80;99.90;;;;;;5031761;28;20029;-44
2023/08/09 12:46:40;;;;;;;4.32;1.10;;;20.90;99.90;;;;;;5032723;28;20030;-46